Airfield :
LOGIN :

Register | Disclaimer

   EN    FR    IT 

 










Legend :    VFR   Marginal VFR   IFR   Intensive IFR   Very Intensive IFR
Visi :
Ceiling :
>= 8 km
>= 3000ft
5 to 8 km
1000 to 3000 ft
1500m to 5 km
500 to 1000 ft
800 to 1500m
200 to 500 ft
< 800m
< 200 ft
Symbols :   Thunderstorms  Fog  Heavy snow  Heavy precipitations  Wind > 20 kt
SIGMETs :     Misc.  Thunderstorms  Icing  Turbulence  Mountain Waves  Volcanic Ashes







- Airport Elevation : 458 ft
- Download approach charts


LFSI - St-Dizier

CURRENT METAR :
  • 181800Z AUTO 13002KT CAVOK 08/M01 Q1018

EXPIRED METARs :
  • 181730Z AUTO 18002KT CAVOK 10/00 Q1017
  • 181700Z AUTO 24001KT CAVOK 13/01 Q1017
  • 181630Z AUTO VRB03KT CAVOK 14/01 Q1017
  • 181600Z AUTO VRB01KT CAVOK 15/01 Q1017
  • 181530Z AUTO VRB03KT CAVOK 15/01 Q1017

TAF TAF LFSI
Valid from the 18 at 15:00 until the 19 at 15:00 UTC


181400Z 1815/1915 21010KT CAVOK
BECMG 1816/1818 15005KT
BECMG 1906/1908 21010KT BKN010 BKN020 BKN030
TEMPO 1909/1913 BKN005 BKN010 BKN040
BECMG 1913/1915 SCT015
No reported NOTAMs for that airfield.



MET'MAP, your aeronautical weather chart ! - Copyright ORBIFLY December 2007 - Disclaimer

ORBIFLY MET'MAP TEAM :

Programming & Development : Alexandra Zaïnal
Concept & Development : Baudouin d'Aumeries
Co-Development & Prog : Marc-Olivier Méhu
Technical & hardware support : Manuel Goepfert

Contact : metmap@orbifly.com




SOURCES & CREDITS :

   NOAA